createdAt,value
2023-02-04T00:00:39.061Z,13.20
2023-02-04T00:03:27.381Z,14.90
2023-02-04T00:05:55.869Z,12.40
2023-02-04T00:08:24.338Z,12.30
2023-02-04T00:10:52.674Z,15.50
2023-02-04T00:13:20.855Z,12.50
2023-02-04T00:15:49.303Z,10.80
2023-02-04T00:18:17.728Z,13.30
2023-02-04T00:20:46.078Z,15.40
2023-02-04T00:23:14.498Z,19.10
2023-02-04T00:25:42.879Z,16.50
2023-02-04T00:28:11.095Z,15.40
2023-02-04T00:30:39.377Z,17.30
2023-02-04T00:33:07.609Z,13.90
2023-02-04T00:35:37.485Z,17.30
2023-02-04T00:38:07.356Z,14.80
2023-02-04T00:40:36.457Z,12.80
2023-02-04T00:43:05.763Z,11.50
2023-02-04T00:45:35.214Z,13.30
2023-02-04T00:48:04.016Z,11.60
2023-02-04T00:50:32.752Z,13.40
2023-02-04T00:53:02.329Z,14.10
2023-02-04T00:55:31.423Z,12.60
2023-02-04T00:58:00.478Z,13.70
2023-02-04T01:00:29.464Z,9.10
2023-02-04T01:02:59.901Z,10.60
2023-02-04T01:05:28.764Z,8.70
2023-02-04T01:07:56.912Z,10.60
2023-02-04T01:10:28.512Z,9.10
2023-02-04T01:12:59.798Z,9.30
2023-02-04T01:15:28.613Z,10.80
2023-02-04T01:17:56.776Z,11.00
2023-02-04T01:20:25.622Z,11.60
2023-02-04T01:22:54.232Z,13.10
2023-02-04T01:25:23.055Z,11.80
2023-02-04T01:27:51.772Z,12.10
2023-02-04T01:30:20.894Z,13.90
2023-02-04T01:32:49.617Z,15.50
2023-02-04T01:35:18.342Z,14.90
2023-02-04T01:37:46.587Z,14.00
2023-02-04T01:40:16.231Z,13.10
2023-02-04T01:42:45.038Z,11.90
2023-02-04T01:45:13.617Z,12.70
2023-02-04T01:47:42.428Z,11.40
2023-02-04T01:50:14.620Z,11.80
2023-02-04T01:52:46.262Z,13.50
2023-02-04T01:55:18.105Z,13.70
2023-02-04T01:57:48.556Z,12.10
2023-02-04T02:00:23.047Z,12.50
2023-02-04T02:02:53.681Z,11.40
2023-02-04T02:05:27.574Z,13.00
2023-02-04T02:07:59.092Z,11.80
2023-02-04T02:10:30.041Z,12.40
2023-02-04T02:12:59.372Z,11.00
2023-02-04T02:15:27.518Z,11.00
2023-02-04T02:17:56.307Z,11.30
2023-02-04T02:20:28.588Z,13.70
2023-02-04T02:23:16.041Z,14.70
2023-02-04T02:25:45.540Z,15.30
2023-02-04T02:28:18.475Z,14.00
2023-02-04T02:30:52.289Z,14.90
2023-02-04T02:33:21.847Z,15.80
2023-02-04T02:35:50.961Z,14.50
2023-02-04T02:38:20.278Z,19.60
2023-02-04T02:40:51.491Z,20.30
2023-02-04T02:43:25.273Z,20.40
2023-02-04T02:45:55.140Z,17.30
2023-02-04T02:48:23.607Z,16.40
2023-02-04T02:50:52.048Z,14.60
2023-02-04T02:53:22.350Z,18.40
2023-02-04T02:55:51.869Z,20.10
2023-02-04T02:58:34.302Z,21.50
2023-02-04T03:01:09.051Z,21.50
2023-02-04T03:03:50.351Z,20.30
2023-02-04T03:06:25.478Z,21.70
2023-02-04T03:11:29.901Z,18.70
2023-02-04T03:14:01.333Z,18.20
2023-02-04T03:16:33.055Z,17.10
2023-02-04T03:19:02.272Z,18.70
2023-02-04T03:21:31.100Z,15.70
2023-02-04T03:23:59.928Z,18.80
2023-02-04T03:26:28.413Z,16.00
2023-02-04T03:28:57.159Z,17.70
2023-02-04T03:31:26.530Z,21.70
2023-02-04T03:33:54.672Z,22.60
2023-02-04T03:36:22.806Z,19.50
2023-02-04T03:38:52.411Z,16.50
2023-02-04T03:41:20.581Z,23.10
2023-02-04T03:43:49.206Z,26.00
2023-02-04T03:46:17.807Z,24.60
2023-02-04T03:48:46.400Z,20.00
2023-02-04T03:51:15.026Z,24.20
2023-02-04T03:53:43.935Z,18.70
2023-02-04T03:56:12.599Z,18.70
2023-02-04T03:58:40.830Z,17.40
2023-02-04T04:01:09.554Z,20.00
2023-02-04T04:03:38.044Z,20.50
2023-02-04T04:06:08.968Z,22.90
2023-02-04T04:08:38.151Z,23.60
2023-02-04T04:11:07.170Z,26.00
2023-02-04T04:13:36.063Z,19.50
2023-02-04T04:16:05.177Z,21.40
2023-02-04T04:18:33.926Z,20.40
2023-02-04T04:21:03.015Z,19.80
2023-02-04T04:23:31.772Z,20.00
2023-02-04T04:26:00.313Z,16.70
2023-02-04T04:28:28.576Z,17.30
2023-02-04T04:30:57.447Z,19.80
2023-02-04T04:33:26.134Z,20.40
2023-02-04T04:35:54.509Z,21.00
2023-02-04T04:38:22.803Z,16.60
2023-02-04T04:40:51.255Z,18.10
2023-02-04T04:43:19.838Z,16.60
2023-02-04T04:45:47.947Z,18.20
2023-02-04T04:48:16.430Z,19.30
2023-02-04T04:50:44.685Z,17.90
2023-02-04T04:53:12.886Z,14.60
2023-02-04T04:55:41.281Z,19.00
2023-02-04T04:58:10.428Z,15.20
2023-02-04T05:00:38.730Z,14.80
2023-02-04T05:03:07.906Z,15.80
2023-02-04T05:05:40.456Z,16.20
2023-02-04T05:08:13.465Z,18.20
2023-02-04T05:10:43.315Z,20.40
2023-02-04T05:13:11.859Z,16.70
2023-02-04T05:15:40.577Z,17.90
2023-02-04T05:18:09.574Z,18.60
2023-02-04T05:20:38.258Z,16.50
2023-02-04T05:23:06.871Z,20.00
2023-02-04T05:25:35.428Z,20.80
2023-02-04T05:28:04.183Z,20.70
2023-02-04T05:30:32.981Z,22.40
2023-02-04T05:33:01.528Z,29.00
2023-02-04T05:35:30.220Z,26.90
2023-02-04T05:37:58.782Z,28.20
2023-02-04T05:40:27.604Z,25.30
2023-02-04T05:42:56.386Z,26.20
2023-02-04T05:45:24.910Z,30.80
2023-02-04T05:47:53.655Z,25.10
2023-02-04T05:50:21.824Z,23.30
2023-02-04T05:52:49.904Z,22.40
2023-02-04T05:55:18.450Z,22.90
2023-02-04T05:57:46.751Z,22.40
2023-02-04T06:00:15.780Z,21.00
2023-02-04T06:02:45.434Z,23.60
2023-02-04T06:05:14.124Z,16.50
2023-02-04T06:07:42.661Z,18.40
2023-02-04T06:10:12.091Z,18.50
2023-02-04T06:12:41.028Z,14.50
2023-02-04T06:15:10.303Z,14.90
2023-02-04T06:17:38.781Z,13.60
2023-02-04T06:20:07.373Z,12.00
2023-02-04T06:22:35.789Z,13.10
2023-02-04T06:25:04.395Z,12.50
2023-02-04T06:27:32.809Z,18.90
2023-02-04T06:30:00.938Z,14.80
2023-02-04T06:32:29.768Z,15.10
2023-02-04T06:34:58.418Z,15.70
2023-02-04T06:37:26.702Z,16.90
2023-02-04T06:39:54.955Z,19.20
2023-02-04T06:42:25.505Z,20.50
2023-02-04T06:44:54.098Z,21.50
2023-02-04T06:47:22.387Z,18.20
2023-02-04T06:49:51.635Z,17.10
2023-02-04T06:52:20.480Z,22.00
2023-02-04T06:54:49.133Z,19.10
2023-02-04T06:57:17.514Z,20.10
2023-02-04T06:59:47.433Z,17.60
2023-02-04T07:02:15.834Z,19.30
2023-02-04T07:04:44.709Z,20.60
2023-02-04T07:07:13.943Z,15.20
2023-02-04T07:09:43.245Z,15.20
2023-02-04T07:12:12.405Z,19.80
2023-02-04T07:14:41.361Z,20.80
2023-02-04T07:17:10.158Z,21.30
2023-02-04T07:19:39.083Z,19.30
2023-02-04T07:22:07.149Z,18.70
2023-02-04T07:24:35.505Z,16.80
2023-02-04T07:27:03.801Z,17.80
2023-02-04T07:29:32.211Z,14.70
2023-02-04T07:32:01.288Z,14.70
2023-02-04T07:34:31.301Z,16.80
2023-02-04T07:36:59.973Z,14.90
2023-02-04T07:39:28.177Z,14.10
2023-02-04T07:41:57.170Z,16.20
2023-02-04T07:44:27.620Z,16.90
2023-02-04T07:46:57.037Z,18.10
2023-02-04T07:49:25.338Z,18.40
2023-02-04T07:51:53.456Z,16.10
2023-02-04T07:54:21.722Z,17.20
2023-02-04T07:56:49.966Z,16.10
2023-02-04T07:59:18.340Z,14.80
2023-02-04T08:01:48.318Z,20.80
2023-02-04T08:04:16.974Z,20.00
2023-02-04T08:06:45.386Z,20.30
2023-02-04T08:09:13.621Z,20.60
2023-02-04T08:11:41.939Z,17.00
2023-02-04T08:14:10.637Z,19.00
2023-02-04T08:16:39.716Z,22.60
2023-02-04T08:19:08.156Z,17.30
2023-02-04T08:21:36.819Z,26.20
2023-02-04T08:24:05.422Z,25.90
2023-02-04T08:26:33.637Z,32.50
2023-02-04T08:29:01.702Z,27.00
2023-02-04T08:31:30.011Z,25.60
2023-02-04T08:33:58.197Z,25.60
2023-02-04T08:36:26.582Z,29.40
2023-02-04T08:38:55.326Z,28.40
2023-02-04T08:41:24.108Z,28.60
2023-02-04T08:43:52.739Z,24.70
2023-02-04T08:46:21.106Z,19.60
2023-02-04T08:48:49.174Z,24.20
2023-02-04T08:51:17.830Z,23.90
2023-02-04T08:53:46.214Z,22.60
2023-02-04T08:56:18.085Z,24.90
2023-02-04T08:58:48.463Z,24.20
2023-02-04T09:01:16.604Z,23.90
2023-02-04T09:03:45.188Z,25.80
2023-02-04T09:06:13.728Z,30.60
2023-02-04T09:08:41.929Z,27.30
2023-02-04T09:11:12.508Z,18.30
2023-02-04T09:13:42.965Z,23.30
2023-02-04T09:16:11.684Z,23.40
2023-02-04T09:18:40.622Z,20.40
2023-02-04T09:21:09.255Z,16.60
2023-02-04T09:23:37.606Z,20.60
2023-02-04T09:26:06.584Z,19.90
2023-02-04T09:28:35.155Z,22.70
2023-02-04T09:31:04.670Z,21.80
2023-02-04T09:33:34.908Z,17.60
2023-02-04T09:36:03.705Z,22.50
2023-02-04T09:38:32.992Z,19.70
2023-02-04T09:41:04.953Z,21.90
2023-02-04T09:43:37.473Z,18.30
2023-02-04T09:46:06.494Z,17.70
2023-02-04T09:48:35.062Z,18.90
2023-02-04T09:51:08.446Z,14.80
2023-02-04T09:53:38.932Z,28.30
2023-02-04T09:56:11.215Z,26.90
2023-02-04T09:58:39.764Z,21.90
2023-02-04T10:01:16.714Z,21.20
2023-02-04T10:03:47.824Z,21.50
2023-02-04T10:06:21.839Z,28.50
2023-02-04T10:08:52.531Z,26.40
2023-02-04T10:11:22.677Z,26.50
2023-02-04T10:13:54.291Z,24.00
2023-02-04T10:16:31.074Z,25.10
2023-02-04T10:19:04.648Z,25.70
2023-02-04T10:21:36.979Z,25.10
2023-02-04T10:24:14.494Z,22.40
2023-02-04T10:26:45.621Z,24.30
2023-02-04T10:29:17.878Z,24.10
2023-02-04T10:31:49.337Z,22.20
2023-02-04T10:34:21.839Z,24.10
2023-02-04T10:36:53.912Z,25.00
2023-02-04T10:39:26.020Z,26.20
2023-02-04T10:41:57.715Z,30.30
2023-02-04T10:44:27.820Z,26.70
2023-02-04T10:47:05.424Z,29.70
2023-02-04T10:49:34.318Z,27.60
2023-02-04T10:52:14.143Z,31.60
2023-02-04T10:54:43.359Z,24.00
2023-02-04T10:57:26.546Z,23.60
2023-02-04T11:00:01.775Z,23.90
2023-02-04T11:03:09.397Z,26.70
2023-02-04T11:05:39.042Z,25.60
2023-02-04T11:08:24.861Z,24.60
2023-02-04T11:11:00.231Z,24.20
2023-02-04T11:16:11.917Z,27.60
2023-02-04T11:19:18.240Z,30.30
2023-02-04T11:21:46.912Z,29.00
2023-02-04T11:24:16.362Z,29.80
2023-02-04T11:26:54.398Z,28.20
2023-02-04T11:29:42.826Z,25.00
2023-02-04T11:32:32.084Z,29.20
2023-02-04T11:35:22.985Z,31.50
2023-02-04T11:37:52.317Z,24.80
2023-02-04T11:40:25.301Z,26.20
2023-02-04T11:43:23.221Z,28.40
2023-02-04T11:46:10.797Z,21.90
2023-02-04T11:48:40.541Z,28.30
2023-02-04T11:51:14.502Z,32.50
2023-02-04T11:53:43.183Z,31.40
2023-02-04T11:56:19.343Z,29.20
2023-02-04T11:58:49.443Z,35.40
2023-02-04T12:01:33.752Z,33.70
2023-02-04T12:04:05.277Z,33.90
2023-02-04T12:06:36.894Z,28.10
2023-02-04T12:09:24.140Z,28.50
2023-02-04T12:11:58.355Z,28.80
2023-02-04T12:14:33.819Z,31.30
2023-02-04T12:17:13.561Z,30.60
2023-02-04T12:19:41.896Z,31.40
2023-02-04T12:22:10.222Z,31.50
2023-02-04T12:24:38.573Z,29.70
2023-02-04T12:27:07.149Z,35.50
2023-02-04T12:29:35.520Z,28.90
2023-02-04T12:32:03.992Z,30.90
2023-02-04T12:34:32.725Z,62.60
2023-02-04T12:37:00.801Z,37.70
2023-02-04T12:39:29.182Z,32.80
2023-02-04T12:41:58.929Z,27.10
2023-02-04T12:44:27.833Z,28.20
2023-02-04T12:46:56.614Z,30.30
2023-02-04T12:49:25.641Z,27.20
2023-02-04T12:51:53.995Z,24.60
2023-02-04T12:54:22.369Z,30.70
2023-02-04T12:56:53.733Z,31.50
2023-02-04T12:59:21.998Z,25.70
2023-02-04T13:01:50.371Z,25.20
2023-02-04T13:04:18.772Z,13.90
2023-02-04T13:06:47.753Z,4.60
2023-02-04T13:09:16.583Z,7.40
2023-02-04T13:11:45.004Z,2.90
2023-02-04T13:14:13.323Z,5.80
2023-02-04T13:16:41.584Z,4.00
2023-02-04T13:19:09.907Z,6.20
2023-02-04T13:21:38.259Z,4.00
2023-02-04T13:24:06.595Z,6.40
2023-02-04T13:26:34.839Z,5.70
2023-02-04T13:29:03.285Z,6.50
2023-02-04T13:31:31.464Z,6.50
2023-02-04T13:33:59.736Z,5.20
2023-02-04T13:36:30.981Z,6.60
2023-02-04T13:39:00.966Z,5.90
2023-02-04T13:41:29.789Z,6.20
2023-02-04T13:43:58.598Z,4.90
2023-02-04T13:46:26.888Z,4.80
2023-02-04T13:48:55.138Z,5.70
2023-02-04T13:51:23.214Z,6.00
2023-02-04T13:53:51.899Z,5.90
2023-02-04T13:56:20.305Z,6.40
2023-02-04T13:58:49.045Z,6.10
2023-02-04T14:01:17.685Z,5.70
2023-02-04T14:03:46.838Z,7.40
2023-02-04T14:06:15.465Z,7.50
2023-02-04T14:08:44.002Z,6.20
2023-02-04T14:11:12.126Z,5.80
2023-02-04T14:13:40.154Z,7.40
2023-02-04T14:16:09.655Z,7.00
2023-02-04T14:18:38.223Z,7.70
2023-02-04T14:21:08.297Z,7.70
2023-02-04T14:23:38.464Z,7.20
2023-02-04T14:26:08.592Z,7.50
2023-02-04T14:28:38.262Z,8.00
2023-02-04T14:31:06.764Z,7.80
2023-02-04T14:33:35.136Z,6.40
2023-02-04T14:36:03.563Z,6.40
2023-02-04T14:38:34.123Z,6.30
2023-02-04T14:41:03.262Z,8.20
2023-02-04T14:43:37.438Z,8.00
2023-02-04T14:46:06.047Z,6.10
2023-02-04T14:48:35.494Z,6.50
2023-02-04T14:51:04.699Z,5.80
2023-02-04T14:53:32.877Z,6.70
2023-02-04T14:56:01.348Z,8.00
2023-02-04T14:58:29.746Z,7.40
2023-02-04T15:00:58.362Z,7.40
2023-02-04T15:03:26.645Z,7.30
2023-02-04T15:05:54.941Z,7.50
2023-02-04T15:08:23.135Z,8.40
2023-02-04T15:10:51.600Z,9.10
2023-02-04T15:13:20.376Z,8.30
2023-02-04T15:15:48.962Z,8.10
2023-02-04T15:18:17.808Z,8.50
2023-02-04T15:20:46.450Z,9.70
2023-02-04T15:23:15.231Z,8.80
2023-02-04T15:25:43.357Z,9.00
2023-02-04T15:28:12.579Z,9.40
2023-02-04T15:30:41.562Z,7.80
2023-02-04T15:33:13.360Z,8.30
2023-02-04T15:35:41.945Z,6.80
2023-02-04T15:38:10.908Z,7.70
2023-02-04T15:40:39.714Z,7.50
2023-02-04T15:43:07.894Z,7.40
2023-02-04T15:45:39.144Z,7.40
2023-02-04T15:48:08.679Z,7.90
2023-02-04T15:50:38.675Z,10.00
2023-02-04T15:53:07.017Z,6.40
2023-02-04T15:55:35.680Z,7.20
2023-02-04T15:58:04.471Z,9.70
2023-02-04T16:00:33.125Z,6.00
2023-02-04T16:03:01.708Z,8.00
2023-02-04T16:05:30.366Z,7.50
2023-02-04T16:07:58.833Z,7.60
2023-02-04T16:10:28.423Z,7.90
2023-02-04T16:12:58.960Z,6.20
2023-02-04T16:15:27.380Z,6.00
2023-02-04T16:17:58.543Z,6.20
2023-02-04T16:20:26.926Z,6.70
2023-02-04T16:22:55.417Z,6.50
2023-02-04T16:25:24.290Z,7.10
2023-02-04T16:27:52.650Z,7.60
2023-02-04T16:30:21.315Z,10.90
2023-02-04T16:32:49.850Z,10.50
2023-02-04T16:35:18.478Z,9.30
2023-02-04T16:37:46.817Z,7.00
2023-02-04T16:40:15.147Z,6.50
2023-02-04T16:42:43.255Z,8.80
2023-02-04T16:45:13.640Z,7.20
2023-02-04T16:47:42.102Z,6.60
2023-02-04T16:50:10.871Z,8.40
2023-02-04T16:52:39.510Z,7.80
2023-02-04T16:55:09.486Z,8.70
2023-02-04T16:57:38.131Z,8.30
2023-02-04T17:00:06.976Z,9.30
2023-02-04T17:02:37.429Z,8.00
2023-02-04T17:05:05.937Z,8.00
2023-02-04T17:07:34.606Z,7.60
2023-02-04T17:10:03.508Z,9.90
2023-02-04T17:12:31.779Z,9.50
2023-02-04T17:15:00.448Z,10.60
2023-02-04T17:17:28.902Z,9.70
2023-02-04T17:19:57.482Z,8.50
2023-02-04T17:22:25.614Z,9.50
2023-02-04T17:24:53.862Z,7.70
2023-02-04T17:27:21.876Z,9.60
2023-02-04T17:29:50.374Z,7.30
2023-02-04T17:32:18.453Z,5.90
2023-02-04T17:34:46.727Z,10.00
2023-02-04T17:37:14.716Z,5.70
2023-02-04T17:39:43.925Z,8.30
2023-02-04T17:42:14.783Z,8.00
2023-02-04T17:44:43.984Z,7.50
2023-02-04T17:47:12.761Z,7.40
2023-02-04T17:49:41.936Z,6.10
2023-02-04T17:52:10.667Z,10.10
2023-02-04T17:54:39.549Z,6.60
2023-02-04T17:57:21.963Z,5.60
2023-02-04T17:59:53.244Z,6.40
2023-02-04T18:02:27.917Z,7.80
2023-02-04T18:05:03.566Z,9.70
2023-02-04T18:07:34.180Z,10.40
2023-02-04T18:10:23.806Z,9.30
2023-02-04T18:12:52.280Z,6.10
2023-02-04T18:15:32.777Z,6.80
2023-02-04T18:18:21.677Z,6.20
2023-02-04T18:21:19.258Z,7.60
2023-02-04T18:23:52.171Z,7.90
2023-02-04T18:26:24.555Z,7.30
2023-02-04T18:28:53.671Z,7.30
2023-02-04T18:31:25.685Z,7.30
2023-02-04T18:33:53.970Z,7.50
2023-02-04T18:36:23.572Z,6.60
2023-02-04T18:38:52.380Z,5.80
2023-02-04T18:41:24.136Z,6.50
2023-02-04T18:44:02.742Z,5.70
2023-02-04T18:46:44.389Z,7.60
2023-02-04T18:49:32.999Z,6.60
2023-02-04T18:52:15.021Z,7.80
2023-02-04T18:54:50.322Z,8.60
2023-02-04T18:57:39.085Z,4.60
2023-02-04T19:00:10.845Z,5.90
2023-02-04T19:02:48.880Z,7.10
2023-02-04T19:05:42.721Z,5.50
2023-02-04T19:08:29.159Z,4.90
2023-02-04T19:10:58.809Z,7.10
2023-02-04T19:13:36.577Z,7.50
2023-02-04T19:16:27.328Z,9.10
2023-02-04T19:18:57.056Z,6.50
2023-02-04T19:21:29.403Z,8.50
2023-02-04T19:24:21.432Z,6.60
2023-02-04T19:26:58.183Z,6.20
2023-02-04T19:29:29.614Z,6.10
2023-02-04T19:32:00.954Z,5.90
2023-02-04T19:34:34.164Z,4.30
2023-02-04T19:37:21.068Z,6.50
2023-02-04T19:39:52.355Z,7.50
2023-02-04T19:42:41.245Z,7.60
2023-02-04T19:45:22.220Z,9.10
2023-02-04T19:47:52.302Z,5.90
2023-02-04T19:50:25.800Z,9.60
2023-02-04T19:53:13.362Z,3.10
2023-02-04T19:55:46.861Z,5.90
2023-02-04T19:58:53.472Z,7.90
2023-02-04T20:01:22.841Z,8.50
2023-02-04T20:03:51.379Z,9.20
2023-02-04T20:06:31.629Z,7.20
2023-02-04T20:09:04.624Z,8.50
2023-02-04T20:11:33.372Z,7.00
2023-02-04T20:14:11.278Z,8.90
2023-02-04T20:17:09.750Z,9.70
2023-02-04T20:19:38.614Z,7.30
2023-02-04T20:22:19.044Z,9.70
2023-02-04T20:24:56.059Z,5.90
2023-02-04T20:27:39.762Z,10.30
2023-02-04T20:30:08.614Z,6.40
2023-02-04T20:32:40.594Z,6.90
2023-02-04T20:35:21.169Z,7.70
2023-02-04T20:37:59.871Z,8.20
2023-02-04T20:40:36.283Z,8.60
2023-02-04T20:43:16.357Z,9.20
2023-02-04T20:45:55.324Z,7.70
2023-02-04T20:48:34.301Z,8.50
2023-02-04T20:51:07.331Z,7.20
2023-02-04T20:53:59.157Z,10.90
2023-02-04T20:56:41.185Z,12.20
2023-02-04T20:59:12.596Z,8.00
2023-02-04T21:01:50.463Z,7.50
2023-02-04T21:04:24.489Z,6.90
2023-02-04T21:06:55.493Z,5.60
2023-02-04T21:09:27.173Z,9.90
2023-02-04T21:11:57.141Z,7.00
2023-02-04T21:14:27.518Z,9.30
2023-02-04T21:16:56.600Z,7.60
2023-02-04T21:19:27.937Z,9.60
2023-02-04T21:21:57.575Z,7.40
2023-02-04T21:24:27.015Z,6.80
2023-02-04T21:26:55.222Z,6.50
2023-02-04T21:29:23.673Z,7.20
2023-02-04T21:31:53.134Z,7.30
2023-02-04T21:34:21.782Z,6.50
2023-02-04T21:36:50.042Z,7.60
2023-02-04T21:39:18.364Z,8.40
2023-02-04T21:41:46.749Z,7.50
2023-02-04T21:44:15.362Z,11.40
2023-02-04T21:46:43.646Z,8.80
2023-02-04T21:49:12.012Z,11.60
2023-02-04T21:51:40.599Z,9.50
2023-02-04T21:54:08.883Z,11.30
2023-02-04T21:56:37.140Z,6.30
2023-02-04T21:59:05.337Z,7.80
2023-02-04T22:01:33.586Z,5.80
2023-02-04T22:04:02.072Z,6.40
2023-02-04T22:06:33.955Z,5.70
2023-02-04T22:09:02.115Z,7.50
2023-02-04T22:11:30.365Z,7.70
2023-02-04T22:14:04.650Z,9.70
2023-02-04T22:16:32.775Z,6.90
2023-02-04T22:19:00.872Z,6.40
2023-02-04T22:21:28.919Z,7.70
2023-02-04T22:23:57.916Z,8.00
2023-02-04T22:26:26.483Z,6.40
2023-02-04T22:28:55.560Z,7.90
2023-02-04T22:31:24.248Z,7.60
2023-02-04T22:33:52.752Z,7.00
2023-02-04T22:36:22.052Z,7.00
2023-02-04T22:38:51.666Z,7.20
2023-02-04T22:41:20.364Z,8.60
2023-02-04T22:43:48.906Z,7.60
2023-02-04T22:46:17.288Z,9.10
2023-02-04T22:48:48.210Z,12.10
2023-02-04T22:51:16.599Z,7.90
2023-02-04T22:53:44.779Z,8.60
2023-02-04T22:56:13.180Z,10.50
2023-02-04T22:58:41.327Z,8.10
2023-02-04T23:01:09.347Z,8.40
2023-02-04T23:03:37.467Z,8.40
2023-02-04T23:06:05.970Z,6.60
2023-02-04T23:08:34.676Z,7.30
2023-02-04T23:11:02.919Z,7.20
2023-02-04T23:13:31.076Z,6.50
2023-02-04T23:15:59.273Z,8.50
2023-02-04T23:18:27.427Z,5.60
2023-02-04T23:20:55.598Z,7.30
2023-02-04T23:23:23.929Z,8.90
2023-02-04T23:25:52.231Z,8.70
2023-02-04T23:28:20.572Z,8.10
2023-02-04T23:30:50.044Z,7.30
2023-02-04T23:33:18.382Z,6.60
2023-02-04T23:35:46.683Z,7.90
2023-02-04T23:38:15.033Z,7.60
2023-02-04T23:40:43.470Z,7.10
2023-02-04T23:43:12.407Z,6.90
2023-02-04T23:45:41.051Z,7.00
2023-02-04T23:48:09.310Z,9.70
2023-02-04T23:50:38.246Z,8.10
2023-02-04T23:53:06.851Z,7.50
2023-02-04T23:55:35.494Z,8.30
2023-02-04T23:58:03.868Z,7.80
